Silvio Guerra

Olheiro-Chefe - AS Roma
4 Jun 2028
Domingo
Processo

Personalidade

Adaptabilidade (12) Ambição (9) Controvérsia (10) Lealdade (6) Pressão (20) Profissionalismo (1) Espírito Esportivo (14) Temperamento (19)

Perfil

Estilo de Treinamento Democrático
Licença Continental C
Determinação 16
Gestão de Pessoas 15
Motivação 9
Disciplina 12
Satisfação no Trabalho
100%
Fadiga
0%
Função Olheiro-Chefe
Salário 106.2K p/s
Contrato 14.03.2030

Desempenho

Comportamento Bom
Eficácia do Treinamento
54%
Desenvolvimento do Jogador
65%
Prevenção de Lesões
40%
Implementação Tática
65%

Eventos Recentes

Avaliou um jogador agora

Monitorando agora

59
Jogador Clube Status Habilidade Confiança Observado Última observação Último voto
Pietro Iemmello Fiorentina Ativo 130 / 133 58% 1 02.06.2028 -
Ayyoub Bouaddi Manchester City Ativo 145 / 154 40% 2 01.06.2028 -
Diego León Ferencvaros Ativo 134 / 125 40% 1 01.06.2028 -
Bahmed Deuff FC Metz Ativo 119 / 123 40% 2 30.01.2028 -
Ezra Mayers West Ham United Ativo 118 / 125 40% 3 26.01.2028 -
Markus Walker FC Midtjylland Ativo 121 / 119 40% 1 26.01.2028 -
Marius Courcoul Olympique de Marseille Ativo 122 / 125 40% 1 25.01.2028 -
Souza Tottenham Ativo 126 / 130 40% 4 24.01.2028 -
Halam Loboa Osasuna Ativo 119 / 127 40% 1 24.01.2028 -
Matteo Palma Udinese Ativo 124 / 129 40% 2 22.01.2028 -
Sascha Britschgi Fiorentina Ativo 123 / 130 40% 3 17.01.2028 -
Alberto Dossena Como Ativo 136 / 135 58% 1 17.01.2028 Aprovar
Harry Amass Manchester United Ativo 138 / 143 40% 6 10.01.2028 -
Miguel Figueiredo Benfica Ativo 107 / 123 40% 1 10.01.2028 -
Celías Ingenthron Racing Club Ativo 129 / 121 40% 1 05.01.2028 -
Daniel Banjaqui Benfica Ativo 130 / 131 40% 1 03.01.2028 -
Finn Jeltsch VfB Stuttgart Ativo 144 / 143 40% 1 03.01.2028 -
Marcus Thuram Inter Ativo 174 / 173 58% 1 01.01.2028 Aprovar
Davide Bartesaghi AC Milan Ativo 125 / 145 40% 2 31.08.2027 -
Lennon Miller Udinese Ativo 141 / 141 40% 2 30.08.2027 -
Vitor Reis Manchester City Ativo 142 / 143 40% 5 28.08.2027 -
Juan David Arizala Udinese Ativo 124 / 134 40% 1 26.08.2027 -
Ollie Scarles West Ham United Ativo 128 / 144 40% 2 24.08.2027 -
Alejandro Almaraz Oviedo Ativo 122 / 125 40% 2 18.08.2027 -
Ishé Samuels-Smith Chelsea Ativo 130 / 131 40% 8 16.08.2027 -
Lewis Koumas Liverpool Ativo 111 / 124 40% 6 08.08.2027 -
George Abbott Tottenham Ativo 114 / 124 40% 4 31.07.2027 -
Damola Ajayi Tottenham Ativo 110 / 130 40% 3 29.07.2027 -
Maat Daniel Caprini Fiorentina Ativo 124 / 125 40% 4 29.07.2027 -
Dani Díaz Real Sociedad Ativo 110 / 126 40% 1 27.07.2027 -
Amir Mohammad Razzaghinia Esteghlal Ativo 95 / 115 40% 3 26.07.2027 -
Abdelhamid Ait Boudlal Stade Rennais Ativo 128 / 123 40% 1 23.07.2027 -
Emilio Lawrence Manchester City Ativo 118 / 129 40% 3 13.07.2027 -
Axel Tape Bayer Leverkusen Ativo 117 / 138 40% 2 11.07.2027 Mais informações
Nadir Zortea Bologna Ativo 130 / 141 55% 1 05.07.2027 -
Yoram Zague Paris Saint-Germain Ativo 112 / 125 40% 1 05.07.2027 -
Yasin Özcan Aston Villa Ativo 122 / 120 40% 2 04.07.2027 -
Samuele di Benedetto Union Berlin Ativo 116 / 120 40% 2 13.06.2027 -
Kirill Glebov CSKA Moscow Ativo 119 / 129 40% 1 06.06.2027 -
Mario Pašalić Atalanta Ativo 151 / 144 55% 1 01.06.2027 -
Luciano Inverso Valencia Ativo 118 / 118 40% 3 25.01.2027 Observar
Kento Shiogai VfL Wolfsburg Ativo 125 / 117 40% 4 25.01.2027 Observar
Juan Pablo De la Reta Maipú Ativo 95 / 119 40% 1 21.01.2027 -
Edmund Baidoo Borussia Dortmund Ativo 127 / 132 40% 4 18.01.2027 -
Juan Giménez Athletic Bilbao Ativo 110 / 119 40% 2 06.01.2027 -
Matheus Gonçalves Al-Ahli Ativo 128 / 126 40% 1 02.01.2027 -
Javier Mena Villarreal Ativo 121 / 120 40% 1 31.08.2026 Mais informações
Ngal'Ayel Mukau LOSC Lille Ativo 140 / 134 40% 1 31.08.2026 Mais informações
Yarek Gąsiorowski PSV Ativo 143 / 142 40% 1 30.08.2026 -
Alphadjo Cissé Hellas Verona Ativo 114 / 134 40% 1 26.08.2026 -
Mbekezeli Mbokazi Chicago Fire Ativo 120 / 125 40% 2 24.08.2026 -
Jaydee Canvot Crystal Palace Ativo 126 / 131 40% 1 21.08.2026 -
Jesús Rodríguez Como Ativo 141 / 144 40% 1 21.08.2026 Mais informações
Victor Froholdt Porto Ativo 146 / 163 40% 1 19.08.2026 -
Leo Castledine Middlesbrough Ativo 113 / 126 40% 1 13.08.2026 -
Caleb Yirenkyi Coventry City Ativo 142 / 138 40% 1 13.08.2026 -
Ignacio Perruzzi San Lorenzo Ativo 120 / 132 40% 1 10.08.2026 -
Kialonda Gaspar Lecce Ativo 129 / 130 55% 1 03.08.2026 -
Xaver Schlager Nottingham Forest Ativo 159 / 150 40% 1 01.08.2026 -